createdAt,value
2018-09-18T00:00:53.417Z,993.89
2018-09-18T00:10:53.452Z,993.70
2018-09-18T00:20:53.496Z,993.63
2018-09-18T00:30:53.493Z,993.44
2018-09-18T00:40:53.506Z,993.39
2018-09-18T00:50:53.527Z,993.35
2018-09-18T01:00:53.509Z,993.24
2018-09-18T01:10:54.413Z,993.21
2018-09-18T01:20:53.495Z,993.04
2018-09-18T01:30:53.441Z,993.14
2018-09-18T01:40:53.464Z,993.14
2018-09-18T01:50:53.601Z,993.08
2018-09-18T02:00:53.470Z,993.02
2018-09-18T02:10:54.513Z,992.95
2018-09-18T02:20:53.508Z,992.80
2018-09-18T02:30:53.495Z,992.73
2018-09-18T02:40:53.460Z,992.72
2018-09-18T02:50:53.582Z,992.59
2018-09-18T03:00:53.498Z,992.57
2018-09-18T03:10:53.514Z,992.50
2018-09-18T03:20:53.539Z,992.40
2018-09-18T03:30:53.466Z,992.36
2018-09-18T03:40:53.522Z,992.40
2018-09-18T03:50:53.744Z,992.29
2018-09-18T04:00:53.515Z,992.24
2018-09-18T04:10:53.523Z,992.26
2018-09-18T04:20:53.488Z,992.24
2018-09-18T04:30:53.555Z,992.17
2018-09-18T04:40:53.680Z,992.12
2018-09-18T04:50:53.529Z,992.11
2018-09-18T05:00:53.490Z,992.16
2018-09-18T05:10:53.550Z,992.17
2018-09-18T05:20:53.573Z,992.12
2018-09-18T05:30:53.564Z,992.20
2018-09-18T05:40:53.549Z,992.14
2018-09-18T05:50:53.641Z,992.19
2018-09-18T06:00:53.619Z,992.20
2018-09-18T06:10:53.517Z,992.14
2018-09-18T06:20:53.596Z,992.17
2018-09-18T06:30:53.498Z,992.20
2018-09-18T06:40:53.569Z,992.10
2018-09-18T06:50:53.649Z,992.14
2018-09-18T07:00:53.692Z,992.25
2018-09-18T07:10:53.649Z,992.25
2018-09-18T07:20:53.550Z,992.35
2018-09-18T07:30:53.618Z,992.42
2018-09-18T07:40:53.539Z,992.42
2018-09-18T07:50:53.541Z,992.46
2018-09-18T08:00:53.639Z,992.49
2018-09-18T08:10:54.146Z,992.50
2018-09-18T08:20:53.599Z,992.56
2018-09-18T08:30:54.266Z,992.52
2018-09-18T08:40:53.704Z,992.70
2018-09-18T08:50:53.731Z,992.75
2018-09-18T09:00:53.577Z,992.79
2018-09-18T09:10:59.643Z,992.90
2018-09-18T09:20:53.677Z,993.00
2018-09-18T09:30:53.657Z,992.81
2018-09-18T09:40:54.278Z,992.81
2018-09-18T09:50:53.653Z,992.79
2018-09-18T10:21:20.769Z,992.70
2018-09-18T10:31:20.833Z,992.70
2018-09-18T10:41:20.961Z,992.61
2018-09-18T10:51:20.815Z,992.62
2018-09-18T11:01:20.768Z,992.64
2018-09-18T11:11:20.841Z,992.51
2018-09-18T11:21:20.877Z,992.51
2018-09-18T11:31:20.933Z,992.30
